Time;durP1;ratioP1;P1;durP2;ratioP2;P2;SDS_P1;SDS_P2;PMS_P1;PMS_P2;Temp;Humidity;BMP_temperature;BMP_pressure;BME280_temperature;BME280_humidity;BME280_pressure;Samples;Min_cycle;Max_cycle;Signal;HPM_P1;HPM_P2
2021/01/15 00:01:11;;;;;;;10.37;5.40;;;2.40;99.90;;;;;;4980755;28;20460;-70
2021/01/15 00:03:38;;;;;;;4.67;3.50;;;2.50;99.90;;;;;;4976985;28;20516;-71
2021/01/15 00:06:07;;;;;;;6.10;5.53;;;2.40;99.90;;;;;;4977509;28;20465;-71
2021/01/15 00:08:34;;;;;;;4.00;3.30;;;2.50;99.90;;;;;;4970601;28;21322;-71
2021/01/15 00:11:01;;;;;;;9.60;4.60;;;2.50;99.90;;;;;;4972408;28;20428;-71
2021/01/15 00:13:28;;;;;;;2.87;2.57;;;2.50;99.90;;;;;;4974246;28;20516;-70
2021/01/15 00:15:55;;;;;;;3.70;3.40;;;2.40;99.90;;;;;;4974146;28;20478;-71
2021/01/15 00:18:22;;;;;;;5.03;4.60;;;2.30;99.90;;;;;;4972102;28;20493;-71
2021/01/15 00:20:49;;;;;;;2.50;2.30;;;2.40;99.90;;;;;;4974886;28;20517;-70
2021/01/15 00:23:16;;;;;;;4.50;3.93;;;2.30;99.90;;;;;;4975293;28;20446;-71
2021/01/15 00:25:44;;;;;;;4.33;4.00;;;2.40;99.90;;;;;;4975626;28;20989;-71
2021/01/15 00:28:10;;;;;;;6.63;4.20;;;2.40;99.90;;;;;;4977102;28;21034;-72
2021/01/15 00:30:37;;;;;;;5.50;4.20;;;2.40;99.90;;;;;;4973753;28;24067;-71
2021/01/15 00:33:04;;;;;;;4.70;3.73;;;2.40;99.90;;;;;;4973817;28;20487;-71
2021/01/15 00:35:32;;;;;;;4.67;3.70;;;2.50;99.90;;;;;;4973194;28;21064;-70
2021/01/15 00:37:59;;;;;;;4.37;3.90;;;2.40;99.90;;;;;;4977318;28;21014;-71
2021/01/15 00:40:25;;;;;;;3.93;3.53;;;2.40;99.90;;;;;;4973365;28;20459;-71
2021/01/15 00:42:52;;;;;;;5.57;5.10;;;2.30;99.90;;;;;;4972472;28;20973;-71
2021/01/15 00:45:19;;;;;;;6.93;5.50;;;2.30;99.90;;;;;;4956982;28;20486;-71
2021/01/15 00:47:46;;;;;;;4.80;2.80;;;2.30;99.90;;;;;;4967926;28;20548;-71
2021/01/15 00:50:13;;;;;;;10.77;4.10;;;2.30;99.90;;;;;;4974603;28;20920;-70
2021/01/15 00:52:42;;;;;;;13.30;4.50;;;2.30;99.90;;;;;;4973595;28;20470;-71
2021/01/15 00:55:09;;;;;;;6.50;4.10;;;2.30;99.90;;;;;;4973557;28;20438;-70
2021/01/15 00:57:40;;;;;;;11.50;4.47;;;2.10;99.90;;;;;;4970800;28;20456;-71
2021/01/15 01:00:09;;;;;;;5.50;3.83;;;2.20;99.90;;;;;;4971746;28;20536;-71
2021/01/15 01:02:36;;;;;;;3.97;3.53;;;2.20;99.90;;;;;;4973671;28;20558;-71
2021/01/15 01:05:03;;;;;;;6.97;3.63;;;2.10;99.90;;;;;;4972289;28;20556;-70
2021/01/15 01:07:32;;;;;;;5.83;2.93;;;2.10;99.90;;;;;;4972041;28;20486;-71
2021/01/15 01:10:00;;;;;;;4.00;2.90;;;2.10;99.90;;;;;;4971848;28;20938;-71
2021/01/15 01:12:26;;;;;;;5.73;4.13;;;2.10;99.90;;;;;;4970831;28;20958;-72
2021/01/15 01:14:53;;;;;;;6.77;5.00;;;2.10;99.90;;;;;;4976223;28;20440;-71
2021/01/15 01:17:20;;;;;;;5.07;4.40;;;2.20;99.90;;;;;;4973126;28;20541;-72
2021/01/15 01:19:46;;;;;;;7.23;4.93;;;2.20;99.90;;;;;;4972417;28;20573;-70
2021/01/15 01:22:13;;;;;;;7.17;3.73;;;2.10;99.90;;;;;;4955387;28;21121;-72
2021/01/15 01:24:39;;;;;;;6.47;4.10;;;2.10;99.90;;;;;;4975430;28;21870;-71
2021/01/15 01:27:07;;;;;;;5.03;4.07;;;2.20;99.90;;;;;;4975645;28;21049;-71
2021/01/15 01:29:33;;;;;;;8.37;6.30;;;2.20;99.90;;;;;;4976043;28;20469;-71
2021/01/15 01:32:00;;;;;;;6.00;4.90;;;2.20;99.90;;;;;;4974488;28;20491;-70
2021/01/15 01:34:27;;;;;;;6.50;3.00;;;2.20;99.90;;;;;;4978487;28;20549;-70
2021/01/15 01:36:54;;;;;;;6.60;3.23;;;2.20;99.90;;;;;;4955766;28;20511;-70
2021/01/15 01:39:20;;;;;;;4.80;3.90;;;2.20;99.90;;;;;;4975199;28;20453;-71
2021/01/15 01:41:47;;;;;;;9.27;5.17;;;2.20;99.90;;;;;;4971760;28;20558;-72
2021/01/15 01:44:15;;;;;;;8.73;4.40;;;2.20;99.90;;;;;;4971649;28;20937;-71
2021/01/15 01:46:41;;;;;;;5.23;3.07;;;2.20;99.90;;;;;;4969744;28;20449;-70
2021/01/15 01:49:08;;;;;;;7.60;4.90;;;2.20;99.90;;;;;;4970605;28;21375;-71
2021/01/15 01:51:35;;;;;;;6.43;5.13;;;2.20;99.90;;;;;;4970427;28;20561;-72
2021/01/15 01:54:02;;;;;;;6.80;3.30;;;2.20;99.90;;;;;;4976522;28;22033;-71
2021/01/15 01:56:29;;;;;;;8.67;5.50;;;2.10;99.90;;;;;;4975002;28;20559;-72
2021/01/15 01:58:56;;;;;;;10.17;6.00;;;2.20;99.90;;;;;;4973066;28;20471;-72
2021/01/15 02:01:26;;;;;;;15.70;6.90;;;2.20;99.90;;;;;;4973302;28;20498;-71
2021/01/15 02:04:00;;;;;;;10.90;5.00;;;2.20;99.90;;;;;;4973754;28;20861;-72
2021/01/15 02:06:27;;;;;;;8.93;5.87;;;2.20;99.90;;;;;;4978876;28;21071;-72
2021/01/15 02:08:54;;;;;;;8.53;4.77;;;2.20;99.90;;;;;;4979777;28;20445;-72
2021/01/15 02:11:31;;;;;;;8.00;6.00;;;2.20;99.90;;;;;;4974067;28;20528;-71
2021/01/15 02:14:05;;;;;;;7.90;4.23;;;2.20;99.90;;;;;;4971989;28;20512;-72
2021/01/15 02:16:33;;;;;;;10.07;6.43;;;2.20;99.90;;;;;;4970596;28;20544;-72
2021/01/15 02:19:21;;;;;;;9.47;5.33;;;2.10;99.90;;;;;;4971941;28;20545;-72
2021/01/15 02:22:17;;;;;;;12.27;5.90;;;2.20;99.90;;;;;;4974722;28;20508;-72
2021/01/15 02:25:29;;;;;;;6.23;4.77;;;2.20;99.90;;;;;;4969757;28;20505;-72
2021/01/15 02:28:08;;;;;;;4.77;4.40;;;2.30;99.90;;;;;;4944229;28;20507;-72
2021/01/15 02:30:53;;;;;;;7.40;6.73;;;2.30;99.90;;;;;;4972305;28;20471;-72
2021/01/15 02:33:34;;;;;;;11.63;8.57;;;2.30;99.90;;;;;;4965726;28;20789;-72
2021/01/15 02:36:06;;;;;;;10.40;6.90;;;2.40;99.90;;;;;;4971885;28;20588;-71
2021/01/15 02:38:43;;;;;;;6.10;5.00;;;2.40;99.90;;;;;;4969987;28;20454;-71
2021/01/15 02:41:29;;;;;;;6.63;5.97;;;2.20;99.90;;;;;;4973248;28;20421;-72
2021/01/15 02:43:57;;;;;;;9.53;7.10;;;2.20;99.90;;;;;;4971764;28;20471;-72
2021/01/15 02:46:40;;;;;;;7.00;5.23;;;2.20;99.90;;;;;;4971366;28;20490;-71
2021/01/15 02:49:09;;;;;;;17.00;5.57;;;2.10;99.90;;;;;;4970815;28;20515;-71
2021/01/15 02:51:39;;;;;;;17.93;7.40;;;2.20;99.90;;;;;;4968489;28;20559;-72
2021/01/15 02:54:06;;;;;;;6.30;5.70;;;2.10;99.90;;;;;;4970557;28;20895;-73
2021/01/15 02:56:33;;;;;;;15.37;7.60;;;2.10;99.90;;;;;;4973902;28;20566;-71
2021/01/15 02:59:00;;;;;;;9.50;6.90;;;2.00;99.90;;;;;;4978540;28;20459;-71
2021/01/15 03:01:32;;;;;;;9.93;6.20;;;1.90;99.90;;;;;;4969766;28;20958;-71
2021/01/15 03:04:08;;;;;;;8.17;5.27;;;1.90;99.90;;;;;;4969568;28;20840;-72
2021/01/15 03:06:47;;;;;;;5.93;4.77;;;2.00;99.90;;;;;;4972263;28;20493;-72
2021/01/15 03:09:15;;;;;;;6.77;4.87;;;1.90;99.90;;;;;;4973796;28;20476;-71
2021/01/15 03:11:42;;;;;;;6.23;5.67;;;1.80;99.90;;;;;;4972381;28;20520;-72
2021/01/15 03:14:10;;;;;;;9.63;5.30;;;1.80;99.90;;;;;;4973655;28;20485;-71
2021/01/15 03:16:39;;;;;;;7.67;6.30;;;1.90;99.90;;;;;;4970147;28;20529;-71
2021/01/15 03:19:05;;;;;;;6.60;5.07;;;2.00;99.90;;;;;;4977275;28;20469;-72
2021/01/15 03:21:32;;;;;;;9.40;6.67;;;2.00;99.90;;;;;;4974326;28;20468;-71
2021/01/15 03:24:03;;;;;;;9.37;6.13;;;2.00;99.90;;;;;;4971671;28;20525;-71
2021/01/15 03:26:30;;;;;;;9.73;6.60;;;2.00;99.90;;;;;;4973447;28;20540;-70
2021/01/15 03:28:56;;;;;;;13.60;6.67;;;2.10;99.90;;;;;;4976714;28;20552;-72
2021/01/15 03:31:23;;;;;;;12.80;4.90;;;2.10;99.90;;;;;;4978940;28;20553;-72
2021/01/15 03:33:50;;;;;;;8.50;6.93;;;2.20;99.90;;;;;;4975127;28;22619;-72
2021/01/15 03:36:17;;;;;;;6.93;4.30;;;2.10;99.90;;;;;;4976705;28;20465;-71
2021/01/15 03:38:44;;;;;;;12.20;7.80;;;2.10;99.90;;;;;;4974659;28;20491;-72
2021/01/15 03:41:11;;;;;;;9.50;7.80;;;2.10;99.90;;;;;;4973558;28;20471;-72
2021/01/15 03:43:38;;;;;;;11.93;7.37;;;2.00;99.90;;;;;;4972989;28;20425;-72
2021/01/15 03:46:05;;;;;;;6.43;5.77;;;1.90;99.90;;;;;;4976423;28;20485;-72
2021/01/15 03:48:31;;;;;;;8.30;4.27;;;2.00;99.90;;;;;;4975804;28;20553;-73
2021/01/15 03:50:58;;;;;;;8.57;7.80;;;1.90;99.90;;;;;;4976951;28;20487;-72
2021/01/15 03:53:24;;;;;;;14.53;6.93;;;1.90;99.90;;;;;;4973991;28;20529;-71
2021/01/15 03:55:51;;;;;;;14.73;10.20;;;2.00;99.90;;;;;;4971552;28;20489;-71
2021/01/15 03:58:18;;;;;;;13.37;6.57;;;2.10;99.90;;;;;;4970453;28;20461;-72
2021/01/15 04:00:45;;;;;;;11.93;7.00;;;2.10;99.90;;;;;;4975702;28;20521;-74
2021/01/15 04:03:12;;;;;;;14.83;6.97;;;1.90;99.90;;;;;;4978395;28;21847;-72
2021/01/15 04:05:38;;;;;;;11.17;6.00;;;1.80;99.90;;;;;;4980414;28;21037;-71
2021/01/15 04:08:05;;;;;;;5.83;5.33;;;1.90;99.90;;;;;;4956987;28;20488;-72
2021/01/15 04:10:32;;;;;;;15.90;5.70;;;1.90;99.90;;;;;;4973509;28;23990;-72
2021/01/15 04:12:59;;;;;;;11.50;8.33;;;1.90;99.90;;;;;;4973352;28;21124;-72
2021/01/15 04:15:26;;;;;;;11.70;7.30;;;2.00;99.90;;;;;;4973990;28;20548;-72
2021/01/15 04:17:53;;;;;;;15.00;7.43;;;2.00;99.90;;;;;;4976604;28;21021;-72
2021/01/15 04:20:20;;;;;;;19.40;8.20;;;2.10;99.90;;;;;;4967074;28;20519;-72
2021/01/15 04:22:47;;;;;;;10.50;7.73;;;2.10;99.90;;;;;;4972619;28;20510;-72
2021/01/15 04:25:14;;;;;;;12.43;7.53;;;1.90;99.90;;;;;;4975475;28;20474;-69
2021/01/15 04:27:42;;;;;;;11.20;6.00;;;1.90;99.90;;;;;;4982464;28;20521;-69
2021/01/15 04:30:10;;;;;;;19.03;5.57;;;2.00;99.90;;;;;;4973193;28;20538;-70
2021/01/15 04:32:43;;;;;;;15.47;7.20;;;1.80;99.90;;;;;;4973001;28;20508;-70
2021/01/15 04:35:11;;;;;;;13.77;6.87;;;1.80;99.90;;;;;;4975533;28;20860;-69
2021/01/15 04:37:38;;;;;;;8.73;5.73;;;1.90;99.90;;;;;;4975787;28;20855;-71
2021/01/15 04:40:05;;;;;;;14.70;6.50;;;2.10;99.90;;;;;;4973394;28;20502;-72
2021/01/15 04:42:33;;;;;;;11.13;7.17;;;2.00;99.90;;;;;;4974281;28;20508;-71
2021/01/15 04:45:00;;;;;;;9.27;8.20;;;2.10;99.90;;;;;;4974540;28;20987;-71
2021/01/15 04:47:27;;;;;;;13.67;7.67;;;2.00;99.90;;;;;;4963988;28;20512;-71
2021/01/15 04:49:55;;;;;;;11.53;6.47;;;2.00;99.90;;;;;;4974411;28;20518;-72
2021/01/15 04:52:21;;;;;;;15.80;8.10;;;1.90;99.90;;;;;;4977507;28;20530;-71
2021/01/15 04:54:54;;;;;;;10.03;6.33;;;1.90;99.90;;;;;;4976956;28;20586;-71
2021/01/15 04:57:21;;;;;;;6.13;5.23;;;1.90;99.90;;;;;;4978463;28;20498;-69
2021/01/15 04:59:49;;;;;;;12.77;7.70;;;1.90;99.90;;;;;;4978381;28;20482;-70
2021/01/15 05:02:19;;;;;;;15.53;9.07;;;1.70;99.90;;;;;;4982274;28;22417;-71
2021/01/15 05:04:46;;;;;;;9.10;4.70;;;1.80;99.90;;;;;;4975950;28;21529;-70
2021/01/15 05:07:15;;;;;;;10.17;5.57;;;1.60;99.90;;;;;;4973072;28;21041;-71
2021/01/15 05:09:43;;;;;;;11.13;6.93;;;1.60;99.90;;;;;;4977798;28;20438;-71
2021/01/15 05:12:12;;;;;;;6.20;5.40;;;1.60;99.90;;;;;;4978811;28;20950;-70
2021/01/15 05:14:39;;;;;;;11.77;7.40;;;1.60;99.90;;;;;;4972825;28;21684;-70
2021/01/15 05:17:07;;;;;;;12.50;7.77;;;1.60;99.90;;;;;;4977943;28;21562;-71
2021/01/15 05:19:38;;;;;;;6.73;5.03;;;1.50;99.90;;;;;;4972111;28;20564;-71
2021/01/15 05:22:05;;;;;;;6.77;4.80;;;1.40;99.90;;;;;;4976312;28;20438;-71
2021/01/15 05:24:33;;;;;;;12.97;7.50;;;1.50;99.90;;;;;;4972933;28;20476;-70
2021/01/15 05:27:02;;;;;;;8.67;6.37;;;1.50;99.90;;;;;;4969292;28;20543;-71
2021/01/15 05:29:28;;;;;;;24.40;10.17;;;1.50;99.90;;;;;;4968980;28;20535;-71
2021/01/15 05:31:56;;;;;;;11.23;7.33;;;1.40;99.90;;;;;;4977341;28;20441;-71
2021/01/15 05:34:25;;;;;;;5.23;3.97;;;1.40;99.90;;;;;;4976390;28;20533;-71
2021/01/15 05:36:52;;;;;;;16.43;7.00;;;1.40;99.90;;;;;;4968455;28;20580;-70
2021/01/15 05:39:20;;;;;;;14.67;6.63;;;1.40;99.90;;;;;;4967987;28;20430;-71
2021/01/15 05:41:49;;;;;;;9.30;7.37;;;1.40;99.90;;;;;;4973747;28;20470;-71
2021/01/15 05:44:26;;;;;;;10.03;8.47;;;1.60;99.90;;;;;;4974991;28;20442;-71
2021/01/15 05:46:53;;;;;;;5.30;3.23;;;1.50;99.90;;;;;;4975273;28;20498;-71
2021/01/15 05:49:20;;;;;;;4.53;3.73;;;1.50;99.90;;;;;;4973945;28;21020;-72
2021/01/15 05:51:46;;;;;;;9.03;4.10;;;1.50;99.90;;;;;;4976826;28;20463;-71
2021/01/15 05:54:27;;;;;;;13.90;8.57;;;1.40;99.90;;;;;;4972404;28;20590;-70
2021/01/15 05:56:55;;;;;;;8.20;7.37;;;1.30;99.90;;;;;;4972324;28;20905;-72
2021/01/15 05:59:21;;;;;;;9.53;5.60;;;1.40;99.90;;;;;;4970923;28;20490;-71
2021/01/15 06:01:49;;;;;;;9.00;6.07;;;1.40;99.90;;;;;;4976275;28;20462;-71
2021/01/15 06:04:18;;;;;;;13.80;8.83;;;1.50;99.90;;;;;;4974245;28;20979;-71
2021/01/15 06:06:47;;;;;;;12.30;8.23;;;1.40;99.90;;;;;;4967161;28;20457;-72
2021/01/15 06:09:20;;;;;;;13.27;7.87;;;1.50;99.90;;;;;;4983502;28;20478;-70
2021/01/15 06:11:47;;;;;;;16.30;7.20;;;1.60;99.90;;;;;;4974997;28;20809;-70
2021/01/15 06:14:20;;;;;;;9.70;6.80;;;1.70;99.90;;;;;;4975619;28;20537;-71
2021/01/15 06:16:46;;;;;;;16.27;8.30;;;1.70;99.90;;;;;;4971892;28;20537;-70
2021/01/15 06:19:13;;;;;;;10.47;7.27;;;1.70;99.90;;;;;;4972964;28;20470;-71
2021/01/15 06:21:52;;;;;;;13.50;8.93;;;1.60;99.90;;;;;;4975485;28;20550;-70
2021/01/15 06:24:22;;;;;;;13.50;8.87;;;1.70;99.90;;;;;;4978959;28;20478;-70
2021/01/15 06:27:04;;;;;;;14.07;8.80;;;1.70;99.90;;;;;;4974680;28;21044;-70
2021/01/15 06:29:43;;;;;;;6.63;6.00;;;1.70;99.90;;;;;;4974911;28;20796;-70
2021/01/15 06:32:10;;;;;;;17.10;9.13;;;1.50;99.90;;;;;;4977347;28;20433;-71
2021/01/15 06:34:47;;;;;;;13.03;6.70;;;1.50;99.90;;;;;;4974214;28;20468;-71
2021/01/15 06:37:19;;;;;;;8.53;5.57;;;1.50;99.90;;;;;;4980540;28;20486;-71
2021/01/15 06:40:05;;;;;;;13.30;11.90;;;1.50;99.90;;;;;;4979336;28;20458;-70
2021/01/15 06:42:32;;;;;;;12.43;8.70;;;1.50;99.90;;;;;;4979208;28;20963;-70
2021/01/15 06:44:59;;;;;;;8.67;6.47;;;1.50;99.90;;;;;;4979940;28;20464;-71
2021/01/15 06:47:39;;;;;;;12.57;7.13;;;1.40;99.90;;;;;;4973801;28;20475;-70
2021/01/15 06:50:08;;;;;;;18.60;10.33;;;1.50;99.90;;;;;;4983173;28;20482;-70
2021/01/15 06:52:37;;;;;;;15.40;8.63;;;1.50;99.90;;;;;;4980745;28;20467;-70
2021/01/15 06:55:08;;;;;;;8.60;6.47;;;1.70;99.90;;;;;;4975075;28;20495;-71
2021/01/15 06:57:37;;;;;;;15.53;10.17;;;1.80;99.90;;;;;;4978762;28;20508;-70
2021/01/15 07:00:07;;;;;;;26.53;6.60;;;1.80;99.90;;;;;;4983207;28;20467;-71
2021/01/15 07:03:09;;;;;;;13.33;7.87;;;1.50;99.90;;;;;;4986357;28;20433;-71
2021/01/15 07:05:45;;;;;;;14.77;8.13;;;1.50;99.90;;;;;;4983203;28;20992;-70
2021/01/15 07:08:13;;;;;;;11.63;8.67;;;1.70;99.90;;;;;;4980739;28;20505;-70
2021/01/15 07:10:40;;;;;;;8.60;7.73;;;1.80;99.90;;;;;;4986290;28;20468;-70
2021/01/15 07:13:10;;;;;;;12.83;7.43;;;1.80;99.90;;;;;;4979833;28;20479;-70
2021/01/15 07:15:42;;;;;;;9.83;7.10;;;1.70;99.90;;;;;;4978375;28;20508;-69
2021/01/15 07:18:20;;;;;;;13.93;8.40;;;1.80;99.90;;;;;;4981479;28;20440;-71
2021/01/15 07:20:56;;;;;;;13.60;6.70;;;1.70;99.90;;;;;;4980985;28;20447;-70
2021/01/15 07:23:40;;;;;;;6.57;5.30;;;1.70;99.90;;;;;;4981669;28;20851;-69
2021/01/15 07:26:09;;;;;;;8.40;6.30;;;1.90;99.90;;;;;;4984918;28;21032;-70
2021/01/15 07:28:36;;;;;;;13.37;8.10;;;1.90;99.90;;;;;;4977023;28;20461;-70
2021/01/15 07:31:05;;;;;;;13.03;8.20;;;1.90;99.90;;;;;;4984827;28;20523;-70
2021/01/15 07:33:34;;;;;;;17.40;8.10;;;1.90;99.90;;;;;;4979497;28;20437;-70
2021/01/15 07:36:01;;;;;;;18.83;8.40;;;2.00;99.90;;;;;;4988495;28;20573;-70
2021/01/15 07:38:27;;;;;;;7.60;5.57;;;2.20;99.90;;;;;;4985927;28;20521;-70
2021/01/15 07:40:54;;;;;;;9.27;6.57;;;2.20;99.90;;;;;;4982209;28;20485;-71
2021/01/15 07:43:32;;;;;;;13.93;10.33;;;1.90;99.90;;;;;;4981010;28;20473;-71
2021/01/15 07:46:00;;;;;;;13.27;8.57;;;2.00;99.90;;;;;;4981176;28;20940;-70
2021/01/15 07:48:28;;;;;;;19.63;9.03;;;1.80;99.90;;;;;;4983262;28;20544;-70
2021/01/15 07:50:55;;;;;;;11.60;7.30;;;1.70;99.90;;;;;;4978890;28;20463;-71
2021/01/15 07:53:40;;;;;;;11.03;7.30;;;1.50;99.90;;;;;;4979421;28;20522;-70
2021/01/15 07:56:07;;;;;;;10.80;7.17;;;1.60;99.90;;;;;;4985417;28;20539;-71
2021/01/15 07:58:47;;;;;;;18.10;10.10;;;1.80;99.90;;;;;;4975537;28;20434;-70
2021/01/15 08:01:16;;;;;;;11.07;8.10;;;1.80;99.90;;;;;;4980093;28;20433;-70
2021/01/15 08:03:45;;;;;;;12.03;6.30;;;1.90;99.90;;;;;;4981712;28;21002;-70
2021/01/15 08:06:13;;;;;;;9.53;5.93;;;1.90;99.90;;;;;;4981079;28;20609;-70
2021/01/15 08:08:59;;;;;;;15.03;8.20;;;1.90;99.90;;;;;;4981781;28;20450;-70
2021/01/15 08:11:26;;;;;;;12.63;8.33;;;1.80;99.90;;;;;;4980215;28;20491;-70
2021/01/15 08:14:11;;;;;;;13.53;6.80;;;1.70;99.90;;;;;;4980021;28;20440;-71
2021/01/15 08:16:40;;;;;;;12.03;6.87;;;1.80;99.90;;;;;;4975390;28;20838;-71
2021/01/15 08:19:09;;;;;;;9.97;9.10;;;1.80;99.90;;;;;;4982576;28;20962;-72
2021/01/15 08:21:37;;;;;;;16.87;7.23;;;1.80;99.90;;;;;;4983714;28;20441;-71
2021/01/15 08:24:04;;;;;;;15.30;9.20;;;2.00;99.90;;;;;;4982797;28;20516;-70
2021/01/15 08:26:42;;;;;;;10.67;6.00;;;2.00;99.90;;;;;;4975723;28;20525;-70
2021/01/15 08:29:08;;;;;;;9.30;6.40;;;2.00;99.90;;;;;;4979555;28;20851;-71
2021/01/15 08:31:35;;;;;;;11.87;7.30;;;2.10;99.90;;;;;;4983565;28;20467;-72
2021/01/15 08:34:11;;;;;;;17.50;12.60;;;2.00;99.90;;;;;;4978020;28;20425;-71
2021/01/15 08:36:42;;;;;;;14.30;7.43;;;2.00;99.90;;;;;;4981352;28;20572;-71
2021/01/15 08:39:09;;;;;;;11.87;8.27;;;2.00;99.90;;;;;;4980331;28;20508;-71
2021/01/15 08:41:36;;;;;;;14.23;8.83;;;2.00;99.90;;;;;;4979794;28;20520;-72
2021/01/15 08:44:03;;;;;;;12.83;5.83;;;2.00;99.90;;;;;;4977166;28;20790;-71
2021/01/15 08:46:31;;;;;;;12.83;6.17;;;2.00;99.90;;;;;;4982745;28;20482;-70
2021/01/15 08:48:59;;;;;;;25.37;9.80;;;2.00;99.90;;;;;;4978790;28;20454;-71
2021/01/15 08:51:32;;;;;;;16.43;8.47;;;1.90;99.90;;;;;;4985253;28;20450;-71
2021/01/15 08:54:04;;;;;;;22.07;12.03;;;1.70;99.90;;;;;;4980615;28;20940;-71
2021/01/15 08:56:34;;;;;;;13.67;8.17;;;1.80;99.90;;;;;;4979599;28;20541;-72
2021/01/15 08:59:01;;;;;;;18.93;9.23;;;1.90;99.90;;;;;;4978711;28;20534;-71
2021/01/15 09:01:29;;;;;;;10.53;8.20;;;2.00;99.90;;;;;;4982816;28;20457;-68
2021/01/15 09:03:58;;;;;;;5.63;5.07;;;2.00;99.90;;;;;;4981900;28;20462;-70
2021/01/15 09:06:28;;;;;;;24.43;11.13;;;2.20;99.90;;;;;;4983697;28;20838;-71
2021/01/15 09:08:57;;;;;;;24.27;11.47;;;2.10;99.90;;;;;;4979522;28;20485;-71
2021/01/15 09:11:30;;;;;;;18.23;9.17;;;2.00;99.90;;;;;;4984419;28;20530;-72
2021/01/15 09:13:57;;;;;;;12.33;7.33;;;2.10;99.90;;;;;;4978015;28;20438;-70
2021/01/15 09:16:25;;;;;;;15.70;7.27;;;2.20;99.90;;;;;;4984458;28;20980;-71
2021/01/15 09:18:53;;;;;;;8.27;5.30;;;2.20;99.90;;;;;;4972411;28;20839;-71
2021/01/15 09:21:20;;;;;;;8.87;4.63;;;2.30;99.90;;;;;;4982482;28;20537;-72
2021/01/15 09:23:48;;;;;;;9.17;6.70;;;2.40;99.90;;;;;;4975112;28;20433;-71
2021/01/15 09:26:16;;;;;;;9.70;6.70;;;2.40;99.90;;;;;;4985566;28;20473;-71
2021/01/15 09:28:43;;;;;;;13.17;8.10;;;2.50;99.90;;;;;;4986078;28;20457;-71
2021/01/15 09:31:10;;;;;;;15.27;10.23;;;2.40;99.90;;;;;;4977660;28;20955;-71
2021/01/15 09:33:46;;;;;;;17.17;8.60;;;2.30;99.90;;;;;;4978934;28;20467;-71
2021/01/15 09:36:23;;;;;;;6.87;4.30;;;2.40;99.90;;;;;;4987193;28;20459;-70
2021/01/15 09:38:51;;;;;;;10.43;7.10;;;2.10;99.90;;;;;;4979785;28;20986;-70
2021/01/15 09:41:20;;;;;;;16.83;8.57;;;2.20;99.90;;;;;;4974426;28;20453;-69
2021/01/15 09:43:47;;;;;;;12.77;6.63;;;2.30;99.90;;;;;;4980214;28;20469;-71
2021/01/15 09:46:25;;;;;;;14.90;8.17;;;2.30;99.90;;;;;;4980621;28;20452;-71
2021/01/15 09:48:52;;;;;;;15.07;7.13;;;2.30;99.90;;;;;;4984831;28;20481;-70
2021/01/15 09:51:23;;;;;;;15.67;8.50;;;2.40;99.90;;;;;;4974844;28;21015;-72
2021/01/15 09:53:51;;;;;;;9.67;6.40;;;2.30;99.90;;;;;;4977778;28;20438;-71
2021/01/15 09:56:25;;;;;;;21.43;7.40;;;2.50;99.90;;;;;;4978661;28;20467;-71
2021/01/15 09:58:52;;;;;;;10.50;6.80;;;2.50;99.90;;;;;;4982866;28;20901;-71
2021/01/15 10:01:19;;;;;;;21.33;8.97;;;2.50;99.90;;;;;;4982495;28;20457;-69
2021/01/15 10:03:46;;;;;;;17.87;10.00;;;2.50;99.90;;;;;;4975705;28;20512;-72
2021/01/15 10:06:16;;;;;;;12.77;7.83;;;2.60;99.90;;;;;;4980448;28;20519;-71
2021/01/15 10:08:43;;;;;;;14.47;8.70;;;2.50;99.90;;;;;;4984607;28;20514;-71
2021/01/15 10:11:19;;;;;;;17.03;7.53;;;2.60;99.90;;;;;;4973905;28;21176;-71
2021/01/15 10:13:47;;;;;;;11.27;8.63;;;2.60;99.90;;;;;;4979285;28;20503;-71
2021/01/15 10:16:14;;;;;;;9.67;7.43;;;2.60;99.90;;;;;;4976358;28;20483;-71
2021/01/15 10:18:40;;;;;;;8.27;6.97;;;2.80;99.90;;;;;;4972181;28;20961;-71
2021/01/15 10:21:07;;;;;;;19.23;7.87;;;2.90;99.90;;;;;;4975902;28;20599;-72
2021/01/15 10:23:35;;;;;;;13.20;9.43;;;2.80;99.90;;;;;;4980658;28;20455;-72
2021/01/15 10:26:02;;;;;;;24.67;10.43;;;2.90;99.90;;;;;;4984530;28;20456;-71
2021/01/15 10:28:29;;;;;;;13.30;8.63;;;2.90;99.90;;;;;;4981552;28;20953;-71
2021/01/15 10:30:56;;;;;;;15.10;7.00;;;2.90;99.90;;;;;;4973246;28;20851;-72
2021/01/15 10:33:23;;;;;;;14.47;6.00;;;3.00;99.90;;;;;;4974401;28;21459;-72
2021/01/15 10:35:51;;;;;;;15.77;6.47;;;3.10;99.90;;;;;;4971070;28;20449;-72
2021/01/15 10:38:17;;;;;;;10.83;7.57;;;2.90;99.90;;;;;;4979183;28;20426;-72
2021/01/15 10:40:44;;;;;;;13.40;7.80;;;3.00;99.90;;;;;;4987070;28;20462;-72
2021/01/15 10:43:11;;;;;;;11.93;6.80;;;3.20;99.90;;;;;;4982609;28;20446;-73
2021/01/15 10:45:39;;;;;;;13.93;9.33;;;3.30;99.90;;;;;;4986414;28;20827;-71
2021/01/15 10:48:07;;;;;;;14.50;9.20;;;3.30;99.90;;;;;;4978394;28;20464;-72
2021/01/15 10:50:34;;;;;;;19.33;8.53;;;3.20;99.90;;;;;;4980108;28;20823;-71
2021/01/15 10:53:01;;;;;;;12.33;6.30;;;3.30;99.90;;;;;;4979980;28;20425;-73
2021/01/15 10:55:27;;;;;;;9.50;6.60;;;3.30;99.90;;;;;;4974523;28;20523;-68
2021/01/15 10:57:54;;;;;;;13.27;6.23;;;3.30;99.90;;;;;;4978563;28;20451;-70
2021/01/15 11:00:21;;;;;;;10.80;8.50;;;3.30;99.90;;;;;;4978074;28;20474;-71
2021/01/15 11:02:49;;;;;;;22.57;8.43;;;3.30;99.90;;;;;;4977990;28;20502;-71
2021/01/15 11:05:18;;;;;;;13.40;8.70;;;3.30;99.90;;;;;;4982021;28;20438;-71
2021/01/15 11:07:46;;;;;;;9.53;8.20;;;3.30;99.90;;;;;;4983025;28;20563;-71
2021/01/15 11:10:13;;;;;;;10.67;6.77;;;3.50;99.90;;;;;;4985929;28;20430;-70
2021/01/15 11:12:40;;;;;;;9.47;6.63;;;3.70;99.90;;;;;;4973806;28;20557;-70
2021/01/15 11:15:08;;;;;;;12.13;6.90;;;3.70;99.90;;;;;;4974249;28;20480;-71
2021/01/15 11:17:38;;;;;;;25.83;9.73;;;3.50;99.90;;;;;;4978680;28;20816;-69
2021/01/15 11:20:07;;;;;;;27.83;5.77;;;3.30;99.90;;;;;;4985835;28;20960;-71
2021/01/15 11:22:35;;;;;;;12.43;6.10;;;3.50;99.90;;;;;;4982613;28;20536;-70
2021/01/15 11:25:02;;;;;;;31.63;9.33;;;3.50;99.90;;;;;;4994721;28;20430;-72
2021/01/15 11:27:28;;;;;;;17.90;9.27;;;3.50;99.90;;;;;;4984742;28;20829;-70
2021/01/15 11:29:55;;;;;;;15.63;8.80;;;3.60;99.90;;;;;;4979354;28;21017;-71
2021/01/15 11:32:23;;;;;;;9.00;5.77;;;3.70;99.90;;;;;;4980205;28;20466;-69
2021/01/15 11:34:50;;;;;;;8.90;5.80;;;3.70;99.90;;;;;;4986647;28;20474;-70
2021/01/15 11:37:18;;;;;;;12.73;6.67;;;3.60;99.90;;;;;;4980812;28;20492;-70
2021/01/15 11:39:45;;;;;;;10.20;6.43;;;3.60;99.90;;;;;;4981423;28;20999;-72
2021/01/15 11:42:12;;;;;;;12.23;6.77;;;3.40;99.90;;;;;;4981727;28;20454;-71
2021/01/15 11:44:38;;;;;;;13.37;4.60;;;3.50;99.90;;;;;;4978500;28;20545;-71
2021/01/15 11:47:05;;;;;;;12.23;7.77;;;3.30;99.90;;;;;;4980469;28;20475;-71
2021/01/15 11:49:32;;;;;;;10.47;5.63;;;3.30;99.90;;;;;;4981043;28;20498;-72
2021/01/15 11:51:59;;;;;;;19.40;6.60;;;3.20;99.90;;;;;;4981550;28;20444;-71
2021/01/15 11:54:27;;;;;;;7.40;4.67;;;3.10;99.90;;;;;;4977441;28;20459;-71
2021/01/15 11:56:54;;;;;;;11.03;7.43;;;3.20;99.90;;;;;;4982302;28;20840;-70
2021/01/15 11:59:20;;;;;;;10.37;6.77;;;3.20;99.90;;;;;;4985887;28;20450;-70
2021/01/15 12:01:49;;;;;;;5.73;4.73;;;3.20;99.90;;;;;;4981452;28;20451;-69
2021/01/15 12:04:16;;;;;;;4.63;4.17;;;3.30;99.90;;;;;;4977867;28;20470;-71
2021/01/15 12:06:42;;;;;;;9.40;7.70;;;3.40;99.90;;;;;;4978090;28;20463;-72
2021/01/15 12:09:09;;;;;;;8.00;6.97;;;3.30;99.90;;;;;;4986022;28;20891;-72
2021/01/15 12:11:40;;;;;;;10.80;5.80;;;3.40;99.90;;;;;;4980826;28;20586;-71
2021/01/15 12:14:07;;;;;;;18.73;7.30;;;3.30;99.90;;;;;;4976993;28;20454;-72
2021/01/15 12:16:34;;;;;;;11.70;8.20;;;3.40;99.90;;;;;;4984155;28;20466;-72
2021/01/15 12:19:01;;;;;;;13.73;9.57;;;3.50;99.90;;;;;;4986164;28;20426;-71
2021/01/15 12:21:27;;;;;;;14.83;7.77;;;3.60;99.90;;;;;;4976757;28;20479;-71
2021/01/15 12:23:54;;;;;;;16.07;8.43;;;3.70;99.90;;;;;;4986501;28;20784;-71
2021/01/15 12:26:21;;;;;;;8.77;4.80;;;3.70;99.90;;;;;;4977857;28;20975;-71
2021/01/15 12:28:48;;;;;;;9.80;5.70;;;3.50;99.90;;;;;;4980678;28;20590;-71
2021/01/15 12:31:16;;;;;;;7.67;6.00;;;3.50;99.90;;;;;;4979287;28;20489;-71
2021/01/15 12:33:43;;;;;;;8.00;4.93;;;3.40;99.90;;;;;;4981432;28;20845;-71
2021/01/15 12:36:11;;;;;;;16.47;8.10;;;3.40;99.90;;;;;;4978257;28;20482;-71
2021/01/15 12:38:37;;;;;;;8.37;5.23;;;3.40;99.90;;;;;;4982282;28;20504;-71
2021/01/15 12:41:04;;;;;;;12.17;8.07;;;3.30;99.90;;;;;;4976858;28;20909;-71
2021/01/15 12:43:31;;;;;;;9.40;6.83;;;3.30;99.90;;;;;;4981459;28;20494;-72
2021/01/15 12:45:58;;;;;;;8.87;5.80;;;3.30;99.90;;;;;;4982001;28;20476;-71
2021/01/15 12:48:25;;;;;;;11.80;5.73;;;3.30;99.90;;;;;;4988423;28;20494;-71
2021/01/15 12:50:52;;;;;;;7.33;6.30;;;3.40;99.90;;;;;;4984135;28;20454;-70
2021/01/15 12:53:18;;;;;;;7.33;5.00;;;3.20;99.90;;;;;;4979747;28;20473;-71
2021/01/15 12:55:45;;;;;;;16.77;7.10;;;3.00;99.90;;;;;;4974659;28;20471;-71
2021/01/15 12:58:12;;;;;;;13.00;9.70;;;2.90;99.90;;;;;;4977202;28;20450;-70
2021/01/15 13:00:39;;;;;;;11.67;7.70;;;2.90;99.90;;;;;;4984858;28;20954;-71